sensor_id;sensor_type;location;lat;lon;timestamp;P1;durP1;ratioP1;P2;durP2;ratioP2
2470;SDS011;1246;53.558;9.940;2022-08-19T00:00:00;8.50;;;7.70;;
2470;SDS011;1246;53.558;9.940;2022-08-19T00:02:26;10.50;;;9.50;;
2470;SDS011;1246;53.558;9.940;2022-08-19T00:04:51;11.13;;;9.80;;
2470;SDS011;1246;53.558;9.940;2022-08-19T00:07:20;11.17;;;10.07;;
2470;SDS011;1246;53.558;9.940;2022-08-19T00:09:45;11.83;;;8.93;;
2470;SDS011;1246;53.558;9.940;2022-08-19T00:12:11;11.50;;;10.10;;
2470;SDS011;1246;53.558;9.940;2022-08-19T00:14:37;16.87;;;15.30;;
2470;SDS011;1246;53.558;9.940;2022-08-19T00:17:03;10.93;;;9.93;;
2470;SDS011;1246;53.558;9.940;2022-08-19T00:19:29;11.87;;;10.77;;
2470;SDS011;1246;53.558;9.940;2022-08-19T00:21:55;12.87;;;11.57;;
2470;SDS011;1246;53.558;9.940;2022-08-19T00:24:21;10.27;;;9.37;;
2470;SDS011;1246;53.558;9.940;2022-08-19T00:26:47;12.03;;;9.97;;
2470;SDS011;1246;53.558;9.940;2022-08-19T00:29:14;11.20;;;10.20;;
2470;SDS011;1246;53.558;9.940;2022-08-19T00:31:40;13.63;;;11.50;;
2470;SDS011;1246;53.558;9.940;2022-08-19T00:34:07;13.60;;;12.23;;
2470;SDS011;1246;53.558;9.940;2022-08-19T00:36:33;16.97;;;15.13;;
2470;SDS011;1246;53.558;9.940;2022-08-19T00:38:58;15.53;;;14.03;;
2470;SDS011;1246;53.558;9.940;2022-08-19T00:41:24;13.20;;;11.83;;
2470;SDS011;1246;53.558;9.940;2022-08-19T00:43:57;17.53;;;15.77;;
2470;SDS011;1246;53.558;9.940;2022-08-19T00:46:24;17.03;;;15.37;;
2470;SDS011;1246;53.558;9.940;2022-08-19T00:48:49;21.40;;;19.10;;
2470;SDS011;1246;53.558;9.940;2022-08-19T00:51:14;20.00;;;17.87;;
2470;SDS011;1246;53.558;9.940;2022-08-19T00:53:40;24.77;;;21.83;;
2470;SDS011;1246;53.558;9.940;2022-08-19T00:56:05;23.67;;;18.80;;
2470;SDS011;1246;53.558;9.940;2022-08-19T00:58:32;19.57;;;17.60;;
2470;SDS011;1246;53.558;9.940;2022-08-19T01:00:59;23.90;;;21.17;;
2470;SDS011;1246;53.558;9.940;2022-08-19T01:03:25;25.03;;;22.03;;
2470;SDS011;1246;53.558;9.940;2022-08-19T01:05:51;25.10;;;21.10;;
2470;SDS011;1246;53.558;9.940;2022-08-19T01:08:17;23.23;;;20.80;;
2470;SDS011;1246;53.558;9.940;2022-08-19T01:10:48;21.70;;;19.50;;
2470;SDS011;1246;53.558;9.940;2022-08-19T01:13:16;22.13;;;19.83;;
2470;SDS011;1246;53.558;9.940;2022-08-19T01:15:55;24.40;;;22.00;;
2470;SDS011;1246;53.558;9.940;2022-08-19T01:18:24;29.03;;;25.93;;
2470;SDS011;1246;53.558;9.940;2022-08-19T01:20:50;25.13;;;22.60;;
2470;SDS011;1246;53.558;9.940;2022-08-19T01:23:16;23.00;;;20.40;;
2470;SDS011;1246;53.558;9.940;2022-08-19T01:25:45;25.53;;;21.47;;
2470;SDS011;1246;53.558;9.940;2022-08-19T01:28:20;20.67;;;18.57;;
2470;SDS011;1246;53.558;9.940;2022-08-19T01:30:47;22.00;;;19.80;;
2470;SDS011;1246;53.558;9.940;2022-08-19T01:33:13;24.90;;;22.37;;
2470;SDS011;1246;53.558;9.940;2022-08-19T01:35:39;20.87;;;18.63;;
2470;SDS011;1246;53.558;9.940;2022-08-19T01:38:06;20.73;;;18.50;;
2470;SDS011;1246;53.558;9.940;2022-08-19T01:40:33;20.43;;;18.43;;
2470;SDS011;1246;53.558;9.940;2022-08-19T01:43:00;21.47;;;19.37;;
2470;SDS011;1246;53.558;9.940;2022-08-19T01:45:27;20.73;;;18.50;;
2470;SDS011;1246;53.558;9.940;2022-08-19T01:47:53;23.20;;;18.00;;
2470;SDS011;1246;53.558;9.940;2022-08-19T01:50:19;20.10;;;18.23;;
2470;SDS011;1246;53.558;9.940;2022-08-19T01:52:45;19.83;;;17.73;;
2470;SDS011;1246;53.558;9.940;2022-08-19T01:55:12;18.17;;;16.37;;
2470;SDS011;1246;53.558;9.940;2022-08-19T01:57:43;21.60;;;19.30;;
2470;SDS011;1246;53.558;9.940;2022-08-19T02:00:13;22.30;;;20.10;;
2470;SDS011;1246;53.558;9.940;2022-08-19T02:02:40;22.53;;;19.87;;
2470;SDS011;1246;53.558;9.940;2022-08-19T02:05:06;24.53;;;21.93;;
2470;SDS011;1246;53.558;9.940;2022-08-19T02:07:33;21.10;;;18.93;;
2470;SDS011;1246;53.558;9.940;2022-08-19T02:10:02;23.53;;;21.03;;
2470;SDS011;1246;53.558;9.940;2022-08-19T02:12:28;26.67;;;20.83;;
2470;SDS011;1246;53.558;9.940;2022-08-19T02:14:54;23.20;;;20.70;;
2470;SDS011;1246;53.558;9.940;2022-08-19T02:17:19;23.73;;;20.23;;
2470;SDS011;1246;53.558;9.940;2022-08-19T02:19:45;21.77;;;19.23;;
2470;SDS011;1246;53.558;9.940;2022-08-19T02:22:10;26.53;;;23.27;;
2470;SDS011;1246;53.558;9.940;2022-08-19T02:24:36;24.27;;;19.50;;
2470;SDS011;1246;53.558;9.940;2022-08-19T02:27:01;26.70;;;20.40;;
2470;SDS011;1246;53.558;9.940;2022-08-19T02:29:26;19.20;;;16.93;;
2470;SDS011;1246;53.558;9.940;2022-08-19T02:31:52;28.67;;;21.83;;
2470;SDS011;1246;53.558;9.940;2022-08-19T02:34:17;29.03;;;21.87;;
2470;SDS011;1246;53.558;9.940;2022-08-19T02:36:43;25.13;;;18.77;;
2470;SDS011;1246;53.558;9.940;2022-08-19T02:39:09;25.50;;;21.93;;
2470;SDS011;1246;53.558;9.940;2022-08-19T02:41:34;28.90;;;22.40;;
2470;SDS011;1246;53.558;9.940;2022-08-19T02:44:00;28.80;;;22.43;;
2470;SDS011;1246;53.558;9.940;2022-08-19T02:46:28;28.70;;;22.33;;
2470;SDS011;1246;53.558;9.940;2022-08-19T02:48:58;27.20;;;22.47;;
2470;SDS011;1246;53.558;9.940;2022-08-19T02:51:26;28.70;;;22.00;;
2470;SDS011;1246;53.558;9.940;2022-08-19T02:53:54;34.57;;;23.80;;
2470;SDS011;1246;53.558;9.940;2022-08-19T02:56:20;41.00;;;26.70;;
2470;SDS011;1246;53.558;9.940;2022-08-19T02:58:46;28.70;;;21.97;;
2470;SDS011;1246;53.558;9.940;2022-08-19T03:01:18;26.10;;;22.77;;
2470;SDS011;1246;53.558;9.940;2022-08-19T03:04:05;35.80;;;26.30;;
2470;SDS011;1246;53.558;9.940;2022-08-19T03:06:30;35.83;;;25.20;;
2470;SDS011;1246;53.558;9.940;2022-08-19T03:08:56;39.70;;;27.37;;
2470;SDS011;1246;53.558;9.940;2022-08-19T03:11:23;43.87;;;28.40;;
2470;SDS011;1246;53.558;9.940;2022-08-19T03:13:50;41.07;;;28.33;;
2470;SDS011;1246;53.558;9.940;2022-08-19T03:16:17;42.27;;;29.70;;
2470;SDS011;1246;53.558;9.940;2022-08-19T03:18:43;44.23;;;28.80;;
2470;SDS011;1246;53.558;9.940;2022-08-19T03:21:09;47.90;;;30.80;;
2470;SDS011;1246;53.558;9.940;2022-08-19T03:23:35;42.40;;;28.47;;
2470;SDS011;1246;53.558;9.940;2022-08-19T03:26:02;41.43;;;30.87;;
2470;SDS011;1246;53.558;9.940;2022-08-19T03:28:29;37.07;;;26.37;;
2470;SDS011;1246;53.558;9.940;2022-08-19T03:31:14;40.67;;;27.27;;
2470;SDS011;1246;53.558;9.940;2022-08-19T03:33:39;34.40;;;26.07;;
2470;SDS011;1246;53.558;9.940;2022-08-19T03:36:12;38.70;;;28.30;;
2470;SDS011;1246;53.558;9.940;2022-08-19T03:38:40;40.50;;;28.80;;
2470;SDS011;1246;53.558;9.940;2022-08-19T03:41:14;34.00;;;29.27;;
2470;SDS011;1246;53.558;9.940;2022-08-19T03:43:43;37.03;;;27.40;;
2470;SDS011;1246;53.558;9.940;2022-08-19T03:46:11;38.53;;;26.50;;
2470;SDS011;1246;53.558;9.940;2022-08-19T03:48:39;37.67;;;27.67;;
2470;SDS011;1246;53.558;9.940;2022-08-19T03:51:05;33.90;;;25.83;;
2470;SDS011;1246;53.558;9.940;2022-08-19T03:53:32;37.50;;;28.00;;
2470;SDS011;1246;53.558;9.940;2022-08-19T03:55:58;40.00;;;28.77;;
2470;SDS011;1246;53.558;9.940;2022-08-19T03:58:28;36.07;;;28.20;;
2470;SDS011;1246;53.558;9.940;2022-08-19T04:00:56;32.70;;;25.80;;
2470;SDS011;1246;53.558;9.940;2022-08-19T04:03:23;39.50;;;30.00;;
2470;SDS011;1246;53.558;9.940;2022-08-19T04:05:49;44.13;;;27.37;;
2470;SDS011;1246;53.558;9.940;2022-08-19T04:08:14;45.23;;;30.27;;
2470;SDS011;1246;53.558;9.940;2022-08-19T04:10:43;38.10;;;28.70;;
2470;SDS011;1246;53.558;9.940;2022-08-19T04:13:09;40.70;;;28.70;;
2470;SDS011;1246;53.558;9.940;2022-08-19T04:15:38;39.27;;;28.90;;
2470;SDS011;1246;53.558;9.940;2022-08-19T04:18:06;39.60;;;24.77;;
2470;SDS011;1246;53.558;9.940;2022-08-19T04:20:38;41.87;;;28.70;;
2470;SDS011;1246;53.558;9.940;2022-08-19T04:23:04;30.83;;;24.93;;
2470;SDS011;1246;53.558;9.940;2022-08-19T04:25:34;36.30;;;29.50;;
2470;SDS011;1246;53.558;9.940;2022-08-19T04:28:00;35.17;;;28.37;;
2470;SDS011;1246;53.558;9.940;2022-08-19T04:30:26;39.20;;;27.20;;
2470;SDS011;1246;53.558;9.940;2022-08-19T04:32:51;31.97;;;26.90;;
2470;SDS011;1246;53.558;9.940;2022-08-19T04:35:16;28.23;;;23.53;;
2470;SDS011;1246;53.558;9.940;2022-08-19T04:37:42;28.20;;;25.13;;
2470;SDS011;1246;53.558;9.940;2022-08-19T04:40:07;31.17;;;24.90;;
2470;SDS011;1246;53.558;9.940;2022-08-19T04:42:51;29.40;;;26.07;;
2470;SDS011;1246;53.558;9.940;2022-08-19T04:45:18;30.70;;;24.97;;
2470;SDS011;1246;53.558;9.940;2022-08-19T04:47:44;29.10;;;23.57;;
2470;SDS011;1246;53.558;9.940;2022-08-19T04:50:09;27.93;;;24.93;;
2470;SDS011;1246;53.558;9.940;2022-08-19T04:52:36;28.40;;;22.60;;
2470;SDS011;1246;53.558;9.940;2022-08-19T04:55:02;23.20;;;19.20;;
2470;SDS011;1246;53.558;9.940;2022-08-19T04:57:29;28.57;;;23.20;;
2470;SDS011;1246;53.558;9.940;2022-08-19T04:59:55;26.17;;;21.47;;
2470;SDS011;1246;53.558;9.940;2022-08-19T05:02:21;27.40;;;21.50;;
2470;SDS011;1246;53.558;9.940;2022-08-19T05:04:51;28.67;;;21.43;;
2470;SDS011;1246;53.558;9.940;2022-08-19T05:07:21;23.97;;;20.57;;
2470;SDS011;1246;53.558;9.940;2022-08-19T05:09:46;27.93;;;21.50;;
2470;SDS011;1246;53.558;9.940;2022-08-19T05:12:12;23.90;;;21.20;;
2470;SDS011;1246;53.558;9.940;2022-08-19T05:14:37;28.27;;;22.80;;
2470;SDS011;1246;53.558;9.940;2022-08-19T05:17:02;27.90;;;21.80;;
2470;SDS011;1246;53.558;9.940;2022-08-19T05:19:28;25.40;;;18.90;;
2470;SDS011;1246;53.558;9.940;2022-08-19T05:22:12;25.53;;;19.30;;
2470;SDS011;1246;53.558;9.940;2022-08-19T05:24:56;23.77;;;18.90;;
2470;SDS011;1246;53.558;9.940;2022-08-19T05:27:21;27.27;;;21.70;;
2470;SDS011;1246;53.558;9.940;2022-08-19T05:29:46;20.93;;;18.50;;
2470;SDS011;1246;53.558;9.940;2022-08-19T05:32:12;24.67;;;19.03;;
2470;SDS011;1246;53.558;9.940;2022-08-19T05:34:37;20.00;;;17.70;;
2470;SDS011;1246;53.558;9.940;2022-08-19T05:37:03;22.93;;;20.63;;
2470;SDS011;1246;53.558;9.940;2022-08-19T05:39:30;25.80;;;18.13;;
2470;SDS011;1246;53.558;9.940;2022-08-19T05:41:59;20.57;;;18.23;;
2470;SDS011;1246;53.558;9.940;2022-08-19T05:44:31;25.07;;;17.57;;
2470;SDS011;1246;53.558;9.940;2022-08-19T05:46:58;24.93;;;18.33;;
2470;SDS011;1246;53.558;9.940;2022-08-19T05:49:25;23.43;;;16.37;;
2470;SDS011;1246;53.558;9.940;2022-08-19T05:51:51;23.93;;;17.77;;
2470;SDS011;1246;53.558;9.940;2022-08-19T05:54:17;21.57;;;17.50;;
2470;SDS011;1246;53.558;9.940;2022-08-19T05:56:43;23.10;;;18.57;;
2470;SDS011;1246;53.558;9.940;2022-08-19T05:59:09;20.47;;;16.57;;
2470;SDS011;1246;53.558;9.940;2022-08-19T06:01:36;22.33;;;17.43;;
2470;SDS011;1246;53.558;9.940;2022-08-19T06:04:03;23.43;;;16.70;;
2470;SDS011;1246;53.558;9.940;2022-08-19T06:06:29;19.13;;;16.37;;
2470;SDS011;1246;53.558;9.940;2022-08-19T06:08:54;25.80;;;17.50;;
2470;SDS011;1246;53.558;9.940;2022-08-19T06:11:24;21.03;;;16.30;;
2470;SDS011;1246;53.558;9.940;2022-08-19T06:14:00;20.10;;;14.87;;
2470;SDS011;1246;53.558;9.940;2022-08-19T06:16:32;20.13;;;16.20;;
2470;SDS011;1246;53.558;9.940;2022-08-19T06:19:00;17.80;;;15.90;;
2470;SDS011;1246;53.558;9.940;2022-08-19T06:21:27;19.57;;;14.83;;
2470;SDS011;1246;53.558;9.940;2022-08-19T06:23:54;22.03;;;16.20;;
2470;SDS011;1246;53.558;9.940;2022-08-19T06:26:19;25.20;;;18.80;;
2470;SDS011;1246;53.558;9.940;2022-08-19T06:28:46;22.77;;;14.47;;
2470;SDS011;1246;53.558;9.940;2022-08-19T06:31:13;25.23;;;15.37;;
2470;SDS011;1246;53.558;9.940;2022-08-19T06:33:39;21.23;;;17.23;;
2470;SDS011;1246;53.558;9.940;2022-08-19T06:36:05;19.60;;;17.37;;
2470;SDS011;1246;53.558;9.940;2022-08-19T06:38:31;22.87;;;17.67;;
2470;SDS011;1246;53.558;9.940;2022-08-19T06:41:04;26.90;;;18.23;;
2470;SDS011;1246;53.558;9.940;2022-08-19T06:43:30;21.63;;;17.07;;
2470;SDS011;1246;53.558;9.940;2022-08-19T06:45:55;20.17;;;17.87;;
2470;SDS011;1246;53.558;9.940;2022-08-19T06:48:21;21.70;;;17.07;;
2470;SDS011;1246;53.558;9.940;2022-08-19T06:50:46;42.00;;;17.93;;
2470;SDS011;1246;53.558;9.940;2022-08-19T06:53:16;18.10;;;14.60;;
2470;SDS011;1246;53.558;9.940;2022-08-19T06:55:44;17.40;;;14.43;;
2470;SDS011;1246;53.558;9.940;2022-08-19T06:58:10;18.43;;;15.30;;
2470;SDS011;1246;53.558;9.940;2022-08-19T07:00:35;22.50;;;15.13;;
2470;SDS011;1246;53.558;9.940;2022-08-19T07:03:01;17.30;;;13.60;;
2470;SDS011;1246;53.558;9.940;2022-08-19T07:05:27;16.70;;;14.50;;
2470;SDS011;1246;53.558;9.940;2022-08-19T07:07:52;15.53;;;13.40;;
2470;SDS011;1246;53.558;9.940;2022-08-19T07:10:18;12.83;;;11.40;;
2470;SDS011;1246;53.558;9.940;2022-08-19T07:12:44;15.90;;;11.13;;
2470;SDS011;1246;53.558;9.940;2022-08-19T07:15:09;12.43;;;10.60;;
2470;SDS011;1246;53.558;9.940;2022-08-19T07:17:36;18.80;;;10.90;;
2470;SDS011;1246;53.558;9.940;2022-08-19T07:20:03;13.53;;;10.30;;
2470;SDS011;1246;53.558;9.940;2022-08-19T07:22:32;16.30;;;12.10;;
2470;SDS011;1246;53.558;9.940;2022-08-19T07:25:00;14.93;;;11.60;;
2470;SDS011;1246;53.558;9.940;2022-08-19T07:27:28;15.53;;;12.70;;
2470;SDS011;1246;53.558;9.940;2022-08-19T07:29:54;11.57;;;10.47;;
2470;SDS011;1246;53.558;9.940;2022-08-19T07:32:19;13.47;;;10.50;;
2470;SDS011;1246;53.558;9.940;2022-08-19T07:34:45;14.67;;;12.30;;
2470;SDS011;1246;53.558;9.940;2022-08-19T07:37:10;12.63;;;11.30;;
2470;SDS011;1246;53.558;9.940;2022-08-19T07:39:37;17.20;;;12.87;;
2470;SDS011;1246;53.558;9.940;2022-08-19T07:42:05;11.07;;;10.03;;
2470;SDS011;1246;53.558;9.940;2022-08-19T07:44:32;12.50;;;9.63;;
2470;SDS011;1246;53.558;9.940;2022-08-19T07:46:59;11.33;;;7.87;;
2470;SDS011;1246;53.558;9.940;2022-08-19T07:49:25;9.60;;;8.63;;
2470;SDS011;1246;53.558;9.940;2022-08-19T07:51:52;10.50;;;8.63;;
2470;SDS011;1246;53.558;9.940;2022-08-19T07:54:23;10.30;;;9.10;;
2470;SDS011;1246;53.558;9.940;2022-08-19T07:56:50;9.90;;;8.93;;
2470;SDS011;1246;53.558;9.940;2022-08-19T07:59:16;10.23;;;9.07;;
2470;SDS011;1246;53.558;9.940;2022-08-19T08:01:43;9.30;;;8.40;;
2470;SDS011;1246;53.558;9.940;2022-08-19T08:04:09;15.83;;;7.97;;
2470;SDS011;1246;53.558;9.940;2022-08-19T08:06:53;16.20;;;9.43;;
2470;SDS011;1246;53.558;9.940;2022-08-19T08:09:38;10.80;;;7.47;;
2470;SDS011;1246;53.558;9.940;2022-08-19T08:14:33;11.03;;;9.37;;
2470;SDS011;1246;53.558;9.940;2022-08-19T08:17:01;8.43;;;7.63;;
2470;SDS011;1246;53.558;9.940;2022-08-19T08:19:27;10.80;;;9.70;;
2470;SDS011;1246;53.558;9.940;2022-08-19T08:21:54;10.97;;;9.87;;
2470;SDS011;1246;53.558;9.940;2022-08-19T08:24:21;16.23;;;9.60;;
2470;SDS011;1246;53.558;9.940;2022-08-19T08:26:47;10.07;;;9.17;;
2470;SDS011;1246;53.558;9.940;2022-08-19T08:29:13;8.83;;;8.00;;
2470;SDS011;1246;53.558;9.940;2022-08-19T08:31:40;13.77;;;11.80;;
2470;SDS011;1246;53.558;9.940;2022-08-19T08:34:07;12.27;;;10.97;;
2470;SDS011;1246;53.558;9.940;2022-08-19T08:36:35;13.60;;;12.00;;
2470;SDS011;1246;53.558;9.940;2022-08-19T08:39:06;11.07;;;9.97;;
2470;SDS011;1246;53.558;9.940;2022-08-19T08:44:17;11.97;;;9.90;;
2470;SDS011;1246;53.558;9.940;2022-08-19T08:46:47;14.07;;;12.23;;
2470;SDS011;1246;53.558;9.940;2022-08-19T08:51:54;13.03;;;11.30;;
2470;SDS011;1246;53.558;9.940;2022-08-19T08:54:26;17.57;;;13.57;;
2470;SDS011;1246;53.558;9.940;2022-08-19T08:57:06;15.47;;;12.20;;
2470;SDS011;1246;53.558;9.940;2022-08-19T08:59:36;12.40;;;10.97;;
2470;SDS011;1246;53.558;9.940;2022-08-19T09:02:05;21.57;;;13.53;;
2470;SDS011;1246;53.558;9.940;2022-08-19T09:04:31;17.70;;;13.10;;
2470;SDS011;1246;53.558;9.940;2022-08-19T09:09:48;14.73;;;12.40;;
2470;SDS011;1246;53.558;9.940;2022-08-19T09:12:38;16.27;;;13.10;;
2470;SDS011;1246;53.558;9.940;2022-08-19T09:15:25;13.87;;;12.47;;
2470;SDS011;1246;53.558;9.940;2022-08-19T09:17:58;10.53;;;9.43;;
2470;SDS011;1246;53.558;9.940;2022-08-19T09:20:25;14.87;;;11.13;;
2470;SDS011;1246;53.558;9.940;2022-08-19T09:22:50;13.60;;;11.67;;
2470;SDS011;1246;53.558;9.940;2022-08-19T09:25:17;14.70;;;11.30;;
2470;SDS011;1246;53.558;9.940;2022-08-19T09:27:47;15.63;;;10.43;;
2470;SDS011;1246;53.558;9.940;2022-08-19T09:30:15;13.73;;;10.83;;
2470;SDS011;1246;53.558;9.940;2022-08-19T09:32:51;14.00;;;11.20;;
2470;SDS011;1246;53.558;9.940;2022-08-19T09:35:20;11.60;;;9.73;;
2470;SDS011;1246;53.558;9.940;2022-08-19T09:37:47;12.33;;;11.03;;
2470;SDS011;1246;53.558;9.940;2022-08-19T09:40:14;14.60;;;11.40;;
2470;SDS011;1246;53.558;9.940;2022-08-19T09:42:40;16.43;;;13.77;;
2470;SDS011;1246;53.558;9.940;2022-08-19T09:45:08;14.90;;;13.37;;
2470;SDS011;1246;53.558;9.940;2022-08-19T09:47:34;14.90;;;12.33;;
2470;SDS011;1246;53.558;9.940;2022-08-19T09:50:03;16.20;;;14.50;;
2470;SDS011;1246;53.558;9.940;2022-08-19T09:52:30;14.23;;;11.90;;
2470;SDS011;1246;53.558;9.940;2022-08-19T09:54:56;12.80;;;11.50;;
2470;SDS011;1246;53.558;9.940;2022-08-19T09:57:21;11.33;;;10.23;;
2470;SDS011;1246;53.558;9.940;2022-08-19T09:59:46;13.30;;;10.33;;
2470;SDS011;1246;53.558;9.940;2022-08-19T10:02:12;13.57;;;11.70;;
2470;SDS011;1246;53.558;9.940;2022-08-19T10:04:38;14.60;;;12.60;;
2470;SDS011;1246;53.558;9.940;2022-08-19T10:07:43;14.50;;;13.00;;
2470;SDS011;1246;53.558;9.940;2022-08-19T10:10:08;20.03;;;12.60;;
2470;SDS011;1246;53.558;9.940;2022-08-19T10:12:35;19.90;;;13.77;;
2470;SDS011;1246;53.558;9.940;2022-08-19T10:15:00;15.53;;;13.20;;
2470;SDS011;1246;53.558;9.940;2022-08-19T10:17:26;17.00;;;11.80;;
2470;SDS011;1246;53.558;9.940;2022-08-19T10:19:52;17.10;;;15.30;;
2470;SDS011;1246;53.558;9.940;2022-08-19T10:22:18;12.93;;;11.27;;
2470;SDS011;1246;53.558;9.940;2022-08-19T10:24:43;16.20;;;14.50;;
2470;SDS011;1246;53.558;9.940;2022-08-19T10:27:10;16.90;;;14.43;;
2470;SDS011;1246;53.558;9.940;2022-08-19T10:29:37;15.97;;;14.47;;
2470;SDS011;1246;53.558;9.940;2022-08-19T10:32:04;14.90;;;13.40;;
2470;SDS011;1246;53.558;9.940;2022-08-19T10:34:33;13.27;;;10.07;;
2470;SDS011;1246;53.558;9.940;2022-08-19T10:37:00;14.93;;;13.50;;
2470;SDS011;1246;53.558;9.940;2022-08-19T10:39:25;12.93;;;11.60;;
2470;SDS011;1246;53.558;9.940;2022-08-19T10:41:53;14.97;;;13.57;;
2470;SDS011;1246;53.558;9.940;2022-08-19T10:44:18;17.60;;;14.57;;
2470;SDS011;1246;53.558;9.940;2022-08-19T10:46:45;13.10;;;11.00;;
2470;SDS011;1246;53.558;9.940;2022-08-19T10:49:11;19.47;;;15.00;;
2470;SDS011;1246;53.558;9.940;2022-08-19T10:51:37;19.00;;;17.10;;
2470;SDS011;1246;53.558;9.940;2022-08-19T10:54:23;20.20;;;17.40;;
2470;SDS011;1246;53.558;9.940;2022-08-19T10:57:08;19.70;;;17.20;;
2470;SDS011;1246;53.558;9.940;2022-08-19T10:59:34;19.93;;;17.83;;
2470;SDS011;1246;53.558;9.940;2022-08-19T11:02:00;19.63;;;16.53;;
2470;SDS011;1246;53.558;9.940;2022-08-19T11:04:27;25.30;;;18.63;;
2470;SDS011;1246;53.558;9.940;2022-08-19T11:06:52;19.03;;;17.03;;
2470;SDS011;1246;53.558;9.940;2022-08-19T11:09:19;17.87;;;16.17;;
2470;SDS011;1246;53.558;9.940;2022-08-19T11:11:46;18.23;;;15.30;;
2470;SDS011;1246;53.558;9.940;2022-08-19T11:14:15;18.20;;;15.47;;
2470;SDS011;1246;53.558;9.940;2022-08-19T11:16:43;16.93;;;14.33;;
2470;SDS011;1246;53.558;9.940;2022-08-19T11:19:09;19.30;;;17.20;;
2470;SDS011;1246;53.558;9.940;2022-08-19T11:21:39;17.47;;;15.67;;
2470;SDS011;1246;53.558;9.940;2022-08-19T11:24:08;16.57;;;14.97;;
2470;SDS011;1246;53.558;9.940;2022-08-19T11:26:35;18.50;;;16.60;;
2470;SDS011;1246;53.558;9.940;2022-08-19T11:29:02;16.37;;;13.87;;
2470;SDS011;1246;53.558;9.940;2022-08-19T11:31:30;16.63;;;14.93;;
2470;SDS011;1246;53.558;9.940;2022-08-19T11:33:57;15.87;;;13.83;;
2470;SDS011;1246;53.558;9.940;2022-08-19T11:36:24;15.97;;;14.30;;
2470;SDS011;1246;53.558;9.940;2022-08-19T11:38:51;16.87;;;15.20;;
2470;SDS011;1246;53.558;9.940;2022-08-19T11:41:17;16.33;;;14.67;;
2470;SDS011;1246;53.558;9.940;2022-08-19T11:43:44;16.47;;;14.93;;
2470;SDS011;1246;53.558;9.940;2022-08-19T11:46:10;15.60;;;14.13;;
2470;SDS011;1246;53.558;9.940;2022-08-19T11:48:37;16.07;;;14.53;;
2470;SDS011;1246;53.558;9.940;2022-08-19T11:51:04;14.10;;;12.90;;
2470;SDS011;1246;53.558;9.940;2022-08-19T11:53:36;16.07;;;14.47;;
2470;SDS011;1246;53.558;9.940;2022-08-19T11:56:03;15.10;;;13.63;;
2470;SDS011;1246;53.558;9.940;2022-08-19T11:58:29;16.77;;;15.13;;
2470;SDS011;1246;53.558;9.940;2022-08-19T12:00:55;15.37;;;13.90;;
2470;SDS011;1246;53.558;9.940;2022-08-19T12:03:21;15.20;;;13.80;;
2470;SDS011;1246;53.558;9.940;2022-08-19T12:05:46;15.50;;;14.10;;
2470;SDS011;1246;53.558;9.940;2022-08-19T12:08:12;18.30;;;16.50;;
2470;SDS011;1246;53.558;9.940;2022-08-19T12:10:38;17.23;;;15.63;;
2470;SDS011;1246;53.558;9.940;2022-08-19T12:13:05;16.67;;;14.97;;
2470;SDS011;1246;53.558;9.940;2022-08-19T12:15:34;16.07;;;14.57;;
2470;SDS011;1246;53.558;9.940;2022-08-19T12:18:01;16.87;;;15.20;;
2470;SDS011;1246;53.558;9.940;2022-08-19T12:20:26;17.67;;;15.97;;
2470;SDS011;1246;53.558;9.940;2022-08-19T12:22:51;15.70;;;14.30;;
2470;SDS011;1246;53.558;9.940;2022-08-19T12:25:17;16.27;;;14.80;;
2470;SDS011;1246;53.558;9.940;2022-08-19T12:27:42;15.57;;;12.70;;
2470;SDS011;1246;53.558;9.940;2022-08-19T12:30:09;14.53;;;13.33;;
2470;SDS011;1246;53.558;9.940;2022-08-19T12:32:36;14.47;;;13.20;;
2470;SDS011;1246;53.558;9.940;2022-08-19T12:35:02;13.90;;;12.70;;
2470;SDS011;1246;53.558;9.940;2022-08-19T12:37:28;14.57;;;13.30;;
2470;SDS011;1246;53.558;9.940;2022-08-19T12:39:56;15.17;;;13.87;;
2470;SDS011;1246;53.558;9.940;2022-08-19T12:42:21;15.47;;;13.93;;
2470;SDS011;1246;53.558;9.940;2022-08-19T12:44:47;15.60;;;14.00;;
2470;SDS011;1246;53.558;9.940;2022-08-19T12:47:13;14.10;;;12.90;;
2470;SDS011;1246;53.558;9.940;2022-08-19T12:49:39;14.77;;;13.47;;
2470;SDS011;1246;53.558;9.940;2022-08-19T12:52:06;13.33;;;12.13;;
2470;SDS011;1246;53.558;9.940;2022-08-19T12:54:33;14.13;;;12.83;;
2470;SDS011;1246;53.558;9.940;2022-08-19T12:56:59;13.90;;;12.80;;
2470;SDS011;1246;53.558;9.940;2022-08-19T12:59:25;17.97;;;16.47;;
2470;SDS011;1246;53.558;9.940;2022-08-19T13:01:51;13.70;;;12.50;;
2470;SDS011;1246;53.558;9.940;2022-08-19T13:04:17;15.20;;;13.80;;
2470;SDS011;1246;53.558;9.940;2022-08-19T13:06:42;14.57;;;13.27;;
2470;SDS011;1246;53.558;9.940;2022-08-19T13:09:11;13.70;;;12.40;;
2470;SDS011;1246;53.558;9.940;2022-08-19T13:11:36;15.53;;;14.00;;
2470;SDS011;1246;53.558;9.940;2022-08-19T13:14:02;16.43;;;14.60;;
2470;SDS011;1246;53.558;9.940;2022-08-19T13:16:28;14.63;;;13.40;;
2470;SDS011;1246;53.558;9.940;2022-08-19T13:18:54;14.33;;;13.03;;
2470;SDS011;1246;53.558;9.940;2022-08-19T13:21:22;16.60;;;15.20;;
2470;SDS011;1246;53.558;9.940;2022-08-19T13:23:49;15.67;;;14.27;;
2470;SDS011;1246;53.558;9.940;2022-08-19T13:26:15;16.87;;;15.47;;
2470;SDS011;1246;53.558;9.940;2022-08-19T13:28:41;15.83;;;14.30;;
2470;SDS011;1246;53.558;9.940;2022-08-19T13:31:26;16.13;;;14.73;;
2470;SDS011;1246;53.558;9.940;2022-08-19T13:34:12;15.70;;;14.40;;
2470;SDS011;1246;53.558;9.940;2022-08-19T13:36:37;15.93;;;14.60;;
2470;SDS011;1246;53.558;9.940;2022-08-19T13:39:03;15.17;;;13.87;;
2470;SDS011;1246;53.558;9.940;2022-08-19T13:41:29;14.37;;;13.07;;
2470;SDS011;1246;53.558;9.940;2022-08-19T13:43:55;15.10;;;13.60;;
2470;SDS011;1246;53.558;9.940;2022-08-19T13:46:21;15.93;;;14.60;;
2470;SDS011;1246;53.558;9.940;2022-08-19T13:48:46;14.63;;;13.33;;
2470;SDS011;1246;53.558;9.940;2022-08-19T13:51:13;15.03;;;13.50;;
2470;SDS011;1246;53.558;9.940;2022-08-19T13:53:41;15.60;;;14.20;;
2470;SDS011;1246;53.558;9.940;2022-08-19T13:56:09;15.10;;;13.80;;
2470;SDS011;1246;53.558;9.940;2022-08-19T13:58:36;17.13;;;12.83;;
2470;SDS011;1246;53.558;9.940;2022-08-19T14:01:02;17.30;;;15.00;;
2470;SDS011;1246;53.558;9.940;2022-08-19T14:03:28;15.83;;;14.53;;
2470;SDS011;1246;53.558;9.940;2022-08-19T14:05:53;17.73;;;16.13;;
2470;SDS011;1246;53.558;9.940;2022-08-19T14:08:19;16.07;;;14.20;;
2470;SDS011;1246;53.558;9.940;2022-08-19T14:10:45;15.93;;;14.60;;
2470;SDS011;1246;53.558;9.940;2022-08-19T14:13:12;17.27;;;15.53;;
2470;SDS011;1246;53.558;9.940;2022-08-19T14:15:39;18.90;;;17.20;;
2470;SDS011;1246;53.558;9.940;2022-08-19T14:18:04;17.53;;;16.03;;
2470;SDS011;1246;53.558;9.940;2022-08-19T14:20:30;18.13;;;16.53;;
2470;SDS011;1246;53.558;9.940;2022-08-19T14:22:55;16.40;;;14.93;;
2470;SDS011;1246;53.558;9.940;2022-08-19T14:25:22;16.40;;;14.90;;
2470;SDS011;1246;53.558;9.940;2022-08-19T14:27:51;15.53;;;14.17;;
2470;SDS011;1246;53.558;9.940;2022-08-19T14:30:19;16.10;;;14.70;;
2470;SDS011;1246;53.558;9.940;2022-08-19T14:32:52;17.30;;;15.80;;
2470;SDS011;1246;53.558;9.940;2022-08-19T14:35:19;15.50;;;14.07;;
2470;SDS011;1246;53.558;9.940;2022-08-19T14:37:46;16.97;;;15.47;;
2470;SDS011;1246;53.558;9.940;2022-08-19T14:40:15;14.57;;;13.27;;
2470;SDS011;1246;53.558;9.940;2022-08-19T14:42:42;15.07;;;13.67;;
2470;SDS011;1246;53.558;9.940;2022-08-19T14:45:09;16.07;;;14.67;;
2470;SDS011;1246;53.558;9.940;2022-08-19T14:47:35;16.07;;;14.77;;
2470;SDS011;1246;53.558;9.940;2022-08-19T14:50:00;16.50;;;15.10;;
2470;SDS011;1246;53.558;9.940;2022-08-19T14:52:26;16.23;;;14.73;;
2470;SDS011;1246;53.558;9.940;2022-08-19T14:54:51;16.10;;;14.60;;
2470;SDS011;1246;53.558;9.940;2022-08-19T14:57:17;15.70;;;14.20;;
2470;SDS011;1246;53.558;9.940;2022-08-19T14:59:42;15.47;;;14.27;;